Time,TemperatureF,DewpointF,PressureIn,WindDirection,WindDirectionDegrees,WindSpeedMPH,WindSpeedGustMPH,Humidity,HourlyPrecipIn,Conditions,Clouds,dailyrainin,SoftwareType,DateUTC
2013-02-12 00:00:00,56.5,53.0,29.28,WSW,253,3.5,0.0,88,0.00,CLR,,0.03,WeatherDisplay:10.37,2013-02-12 05:00:00,
2013-02-12 00:05:00,56.3,52.8,29.28,WSW,240,5.8,5.8,88,0.00,RA,,0.00,WeatherDisplay:10.37,2013-02-12 05:05:00,
2013-02-12 00:10:00,56.3,52.8,29.28,West,274,8.1,8.1,88,0.00,CLR,,0.00,WeatherDisplay:10.37,2013-02-12 05:10:00,
2013-02-12 00:15:00,56.3,52.8,29.28,West,267,4.6,4.6,88,0.00,CLR,,0.00,WeatherDisplay:10.37,2013-02-12 05:15:00,
2013-02-12 00:20:00,56.2,52.7,29.28,WSW,248,5.8,5.8,88,0.00,CLR,,0.00,WeatherDisplay:10.37,2013-02-12 05:20:00,
2013-02-12 00:25:00,56.2,52.7,29.28,WNW,282,4.6,4.6,88,0.00,CLR,,0.00,WeatherDisplay:10.37,2013-02-12 05:25:00,
2013-02-12 00:30:00,56.0,52.5,29.28,SW,233,3.5,3.5,88,0.00,CLR,,0.00,WeatherDisplay:10.37,2013-02-12 05:30:00,
2013-02-12 00:35:00,55.9,52.1,29.28,West,275,6.9,6.9,87,0.00,CLR,,0.00,WeatherDisplay:10.37,2013-02-12 05:35:00,
2013-02-12 00:40:00,55.9,52.1,29.28,West,267,11.5,11.5,87,0.00,CLR,,0.00,WeatherDisplay:10.37,2013-02-12 05:40:00,
2013-02-12 00:45:00,55.7,51.9,29.27,WSW,254,8.1,8.1,87,0.00,CLR,,0.00,WeatherDisplay:10.37,2013-02-12 05:45:00,
2013-02-12 00:50:00,55.6,51.8,29.27,WSW,253,6.9,6.9,87,0.00,CLR,,0.00,WeatherDisplay:10.37,2013-02-12 05:50:00,
2013-02-12 00:55:00,55.4,51.3,29.27,West,263,5.8,5.8,86,0.00,CLR,,0.00,WeatherDisplay:10.37,2013-02-12 05:55:00,
2013-02-12 01:00:00,55.3,51.2,29.27,WSW,239,5.8,5.8,86,0.00,CLR,,0.00,WeatherDisplay:10.37,2013-02-12 06:00:00,
2013-02-12 01:05:00,55.3,51.2,29.27,WNW,288,10.4,10.4,86,0.00,CLR,,0.00,WeatherDisplay:10.37,2013-02-12 06:05:00,
2013-02-12 01:10:00,55.3,51.2,29.27,SW,229,8.0,8.0,86,0.00,CLR,,0.00,WeatherDisplay:10.37,2013-02-12 06:10:00,
2013-02-12 01:15:00,55.1,51.0,29.28,WNW,289,8.1,8.1,86,0.00,CLR,,0.00,WeatherDisplay:10.37,2013-02-12 06:15:00,
2013-02-12 01:20:00,55.1,50.7,29.28,WSW,244,6.9,6.9,85,0.00,CLR,,0.00,WeatherDisplay:10.37,2013-02-12 06:20:00,
2013-02-12 01:25:00,55.1,50.7,29.28,SW,236,10.4,10.4,85,0.00,CLR,,0.00,WeatherDisplay:10.37,2013-02-12 06:25:00,
2013-02-12 01:30:00,55.0,50.6,29.29,WSW,248,6.9,6.9,85,0.00,CLR,,0.00,WeatherDisplay:10.37,2013-02-12 06:30:00,
2013-02-12 01:35:00,54.8,50.4,29.29,WSW,254,8.1,8.1,85,0.00,CLR,,0.00,WeatherDisplay:10.37,2013-02-12 06:35:00,
2013-02-12 01:40:00,54.8,50.4,29.29,WSW,256,11.5,11.5,85,0.00,CLR,,0.00,WeatherDisplay:10.37,2013-02-12 06:40:00,
2013-02-12 01:45:00,54.7,50.0,29.29,WSW,247,6.9,6.9,84,0.00,CLR,,0.00,WeatherDisplay:10.37,2013-02-12 06:45:00,
2013-02-12 01:50:00,54.5,49.8,29.29,WSW,257,10.4,10.4,84,0.00,CLR,,0.00,WeatherDisplay:10.37,2013-02-12 06:50:00,
2013-02-12 01:55:00,54.5,49.8,29.29,WNW,292,10.4,10.4,84,0.00,CLR,,0.00,WeatherDisplay:10.37,2013-02-12 06:55:00,
2013-02-12 02:00:00,54.2,49.5,29.29,WNW,288,5.8,5.8,84,0.00,CLR,,0.00,WeatherDisplay:10.37,2013-02-12 07:00:00,
2013-02-12 02:05:00,54.2,49.8,29.29,WSW,247,9.2,9.2,85,0.00,CLR,,0.00,WeatherDisplay:10.37,2013-02-12 07:05:00,
2013-02-12 02:10:00,54.1,49.4,29.30,West,278,11.5,11.5,84,0.00,CLR,,0.00,WeatherDisplay:10.37,2013-02-12 07:10:00,
2013-02-12 02:15:00,54.1,49.7,29.30,WNW,289,5.8,5.8,85,0.00,CLR,,0.00,WeatherDisplay:10.37,2013-02-12 07:15:00,
2013-02-12 02:20:00,53.9,49.5,29.30,SW,236,5.8,5.8,85,0.00,CLR,,0.00,WeatherDisplay:10.37,2013-02-12 07:20:00,
2013-02-12 02:25:00,53.9,49.5,29.30,WSW,256,10.4,10.4,85,0.00,CLR,,0.00,WeatherDisplay:10.37,2013-02-12 07:25:00,
2013-02-12 02:30:00,53.8,49.4,29.30,West,263,7.0,7.0,85,0.00,CLR,,0.00,WeatherDisplay:10.37,2013-02-12 07:30:00,
2013-02-12 02:35:00,53.6,49.2,29.30,WSW,244,5.8,5.8,85,0.00,CLR,,0.00,WeatherDisplay:10.37,2013-02-12 07:35:00,
2013-02-12 02:40:00,53.5,49.1,29.30,WSW,254,4.6,4.6,85,0.00,CLR,,0.00,WeatherDisplay:10.37,2013-02-12 07:40:00,
2013-02-12 02:45:00,53.3,48.9,29.30,WSW,253,11.5,11.5,85,0.00,CLR,,0.00,WeatherDisplay:10.37,2013-02-12 07:45:00,
2013-02-12 02:50:00,53.2,48.8,29.30,West,263,5.8,5.8,85,0.00,CLR,,0.00,WeatherDisplay:10.37,2013-02-12 07:50:00,
2013-02-12 02:55:00,53.1,49.0,29.30,West,263,10.4,10.4,86,0.00,CLR,,0.00,WeatherDisplay:10.37,2013-02-12 07:55:00,
2013-02-12 03:00:00,52.9,48.5,29.30,WSW,243,3.5,3.5,85,0.00,CLR,,0.00,WeatherDisplay:10.37,2013-02-12 08:00:00,
2013-02-12 03:05:00,52.8,48.7,29.30,NW,306,6.0,6.0,86,0.00,CLR,,0.00,WeatherDisplay:10.37,2013-02-12 08:05:00,
2013-02-12 03:10:00,52.6,48.2,29.30,WSW,248,4.6,4.6,85,0.00,CLR,,0.00,WeatherDisplay:10.37,2013-02-12 08:10:00,
2013-02-12 03:15:00,52.5,48.4,29.30,WSW,248,0.0,0.0,86,0.00,CLR,,0.00,WeatherDisplay:10.37,2013-02-12 08:15:00,
2013-02-12 03:20:00,52.3,47.9,29.30,WSW,240,0.0,0.0,85,0.00,CLR,,0.00,WeatherDisplay:10.37,2013-02-12 08:20:00,
2013-02-12 03:25:00,52.2,47.8,29.31,WNW,289,5.8,5.8,85,0.00,CLR,,0.00,WeatherDisplay:10.37,2013-02-12 08:25:00,
2013-02-12 03:30:00,52.2,47.8,29.31,WNW,299,3.0,3.0,85,0.00,CLR,,0.00,WeatherDisplay:10.37,2013-02-12 08:30:00,
2013-02-12 03:35:00,52.0,47.6,29.31,WSW,246,3.5,3.5,85,0.00,CLR,,0.00,WeatherDisplay:10.37,2013-02-12 08:35:00,
2013-02-12 03:40:00,51.9,46.9,29.31,NW,322,4.6,4.6,83,0.00,CLR,,0.00,WeatherDisplay:10.37,2013-02-12 08:40:00,
2013-02-12 03:45:00,51.7,46.4,29.31,SW,219,4.6,4.6,82,0.00,CLR,,0.00,WeatherDisplay:10.37,2013-02-12 08:45:00,
2013-02-12 03:50:00,51.4,46.1,29.31,WNW,298,5.8,5.8,82,0.00,CLR,,0.00,WeatherDisplay:10.37,2013-02-12 08:50:00,
2013-02-12 03:55:00,51.3,45.3,29.32,NW,320,5.8,5.8,80,0.00,CLR,,0.00,WeatherDisplay:10.37,2013-02-12 08:55:00,
2013-02-12 04:00:00,51.1,45.1,29.32,North,0,5.8,5.8,80,0.00,CLR,,0.00,WeatherDisplay:10.37,2013-02-12 09:00:00,
2013-02-12 04:05:00,51.0,43.7,29.32,ENE,71,3.5,3.5,76,0.00,CLR,,0.00,WeatherDisplay:10.37,2013-02-12 09:05:00,
2013-02-12 04:10:00,50.8,43.5,29.31,WNW,284,7.0,7.0,76,0.00,CLR,,0.00,WeatherDisplay:10.37,2013-02-12 09:10:00,
2013-02-12 04:15:00,50.7,42.0,29.31,North,0,2.3,2.3,72,0.00,CLR,,0.00,WeatherDisplay:10.37,2013-02-12 09:15:00,
2013-02-12 04:20:00,50.7,41.6,29.31,North,1,0.0,0.0,71,0.00,CLR,,0.00,WeatherDisplay:10.37,2013-02-12 09:20:00,
2013-02-12 04:25:00,50.5,41.1,29.32,NW,325,3.5,3.5,70,0.00,CLR,,0.00,WeatherDisplay:10.37,2013-02-12 09:25:00,
2013-02-12 04:30:00,50.4,40.6,29.32,NW,305,3.5,3.5,69,0.00,CLR,,0.00,WeatherDisplay:10.37,2013-02-12 09:30:00,
2013-02-12 04:35:00,50.2,39.7,29.32,NNE,21,2.3,2.3,67,0.00,CLR,,0.00,WeatherDisplay:10.37,2013-02-12 09:35:00,
2013-02-12 04:40:00,50.1,39.2,29.31,NW,313,3.5,3.5,66,0.00,CLR,,0.00,WeatherDisplay:10.37,2013-02-12 09:40:00,
2013-02-12 04:45:00,49.9,38.6,29.31,West,272,0.0,0.0,65,0.00,CLR,,0.00,WeatherDisplay:10.37,2013-02-12 09:45:00,
2013-02-12 04:50:00,49.8,38.5,29.31,West,267,3.5,0.0,65,0.00,CLR,,0.00,WeatherDisplay:10.37,2013-02-12 09:50:00,
2013-02-12 04:55:00,49.8,38.1,29.32,West,277,2.3,2.3,64,0.00,CLR,,0.00,WeatherDisplay:10.37,2013-02-12 09:55:00,
2013-02-12 05:00:00,49.6,37.9,29.32,North,0,0.0,0.0,64,0.00,CLR,,0.00,WeatherDisplay:10.37,2013-02-12 10:00:00,
2013-02-12 05:05:00,49.4,38.1,29.32,North,0,0.0,0.0,65,0.00,CLR,,0.00,WeatherDisplay:10.37,2013-02-12 10:05:00,
2013-02-12 05:10:00,49.1,37.4,29.32,WNW,285,3.5,0.0,64,0.00,CLR,,0.00,WeatherDisplay:10.37,2013-02-12 10:10:00,
2013-02-12 05:15:00,48.8,37.6,29.32,WNW,285,0.0,0.0,65,0.00,CLR,,0.00,WeatherDisplay:10.37,2013-02-12 10:15:00,
2013-02-12 05:20:00,48.5,36.9,29.32,West,270,3.5,3.5,64,0.00,CLR,,0.00,WeatherDisplay:10.37,2013-02-12 10:20:00,
2013-02-12 05:25:00,48.3,36.7,29.33,WNW,284,0.0,0.1,64,0.00,CLR,,0.00,WeatherDisplay:10.37,2013-02-12 10:25:00,
2013-02-12 05:30:00,48.2,36.2,29.33,NW,322,2.3,2.3,63,0.00,CLR,,0.00,WeatherDisplay:10.37,2013-02-12 10:30:00,
2013-02-12 05:35:00,48.0,36.0,29.33,NW,316,3.5,3.5,63,0.00,CLR,,0.00,WeatherDisplay:10.37,2013-02-12 10:35:00,
2013-02-12 05:40:00,47.9,35.5,29.34,NNE,16,6.9,6.9,62,0.00,CLR,,0.00,WeatherDisplay:10.37,2013-02-12 10:40:00,
2013-02-12 05:45:00,47.7,35.3,29.34,North,353,4.6,4.6,62,0.00,CLR,,0.00,WeatherDisplay:10.37,2013-02-12 10:45:00,
2013-02-12 05:50:00,47.6,34.8,29.34,WNW,302,2.3,0.0,61,0.00,CLR,,0.00,WeatherDisplay:10.37,2013-02-12 10:50:00,
2013-02-12 05:56:00,47.4,34.2,29.33,North,359,3.5,3.5,60,0.00,CLR,,0.00,WeatherDisplay:10.37,2013-02-12 10:56:00,
2013-02-12 06:01:00,47.3,33.7,29.33,NNW,333,3.5,3.5,59,0.00,CLR,,0.00,WeatherDisplay:10.37,2013-02-12 11:01:00,
2013-02-12 06:06:00,47.3,33.3,29.33,NW,304,3.5,3.5,58,0.00,CLR,,0.00,WeatherDisplay:10.37,2013-02-12 11:06:00,
2013-02-12 06:11:00,47.3,32.4,29.33,North,359,1.1,0.0,56,0.00,CLR,,0.00,WeatherDisplay:10.37,2013-02-12 11:11:00,
2013-02-12 06:16:00,47.3,32.8,29.33,North,0,4.6,4.6,57,0.00,CLR,,0.00,WeatherDisplay:10.37,2013-02-12 11:16:00,
2013-02-12 06:21:00,47.1,32.2,29.33,NNW,337,0.0,0.0,56,0.00,CLR,,0.00,WeatherDisplay:10.37,2013-02-12 11:21:00,
2013-02-12 06:26:00,47.0,31.7,29.34,WNW,296,3.5,0.0,55,0.00,CLR,,0.00,WeatherDisplay:10.37,2013-02-12 11:26:00,
2013-02-12 06:31:00,47.0,31.2,29.34,North,1,2.3,0.0,54,0.00,CLR,,0.00,WeatherDisplay:10.37,2013-02-12 11:31:00,
2013-02-12 06:36:00,46.8,31.0,29.34,North,359,3.5,4.2,54,0.00,CLR,,0.00,WeatherDisplay:10.37,2013-02-12 11:36:00,
2013-02-12 06:41:00,46.7,30.5,29.34,North,359,4.6,4.6,53,0.00,CLR,,0.00,WeatherDisplay:10.37,2013-02-12 11:41:00,
2013-02-12 06:46:00,46.5,30.7,29.34,NNW,337,0.0,0.5,54,0.00,CLR,,0.00,WeatherDisplay:10.37,2013-02-12 11:46:00,
2013-02-12 06:51:00,46.2,30.5,29.34,North,353,0.0,0.0,54,0.00,CLR,,0.00,WeatherDisplay:10.37,2013-02-12 11:51:00,
2013-02-12 06:56:00,46.1,30.4,29.35,NNW,332,2.3,2.3,54,0.00,CLR,,0.00,WeatherDisplay:10.37,2013-02-12 11:56:00,
2013-02-12 07:01:00,45.8,30.1,29.35,North,354,2.3,2.3,54,0.00,CLR,,0.00,WeatherDisplay:10.37,2013-02-12 12:01:00,
2013-02-12 07:06:00,45.5,30.7,29.35,NW,306,3.5,3.5,56,0.00,CLR,,0.00,WeatherDisplay:10.37,2013-02-12 12:06:00,
2013-02-12 07:11:00,45.2,30.9,29.35,NW,318,0.0,0.6,57,0.00,CLR,,0.00,WeatherDisplay:10.37,2013-02-12 12:11:00,
2013-02-12 07:16:00,44.9,29.7,29.35,North,0,4.6,4.6,55,0.00,CLR,,0.00,WeatherDisplay:10.37,2013-02-12 12:16:00,
2013-02-12 07:21:00,44.9,30.1,29.35,North,359,2.3,2.3,56,0.00,CLR,,0.00,WeatherDisplay:10.37,2013-02-12 12:21:00,
2013-02-12 07:26:00,44.8,30.0,29.35,WNW,301,4.6,4.6,56,0.00,CLR,,0.00,WeatherDisplay:10.37,2013-02-12 12:26:00,
2013-02-12 07:31:00,44.6,29.9,29.35,NNW,346,3.5,3.5,56,0.00,CLR,,0.00,WeatherDisplay:10.37,2013-02-12 12:31:00,
2013-02-12 07:36:00,44.6,29.9,29.35,North,349,0.0,1.5,56,0.00,CLR,,0.00,WeatherDisplay:10.37,2013-02-12 12:36:00,
2013-02-12 07:41:00,44.6,29.0,29.37,NW,319,3.5,3.5,54,0.00,CLR,,0.00,WeatherDisplay:10.37,2013-02-12 12:41:00,
2013-02-12 07:46:00,44.6,29.0,29.37,SW,232,3.5,3.5,54,0.00,CLR,,0.00,WeatherDisplay:10.37,2013-02-12 12:46:00,
2013-02-12 07:51:00,44.6,28.5,29.37,West,281,0.0,0.0,53,0.00,CLR,,0.00,WeatherDisplay:10.37,2013-02-12 12:51:00,
2013-02-12 07:56:00,44.5,28.4,29.37,NW,308,5.8,5.8,53,0.00,CLR,,0.00,WeatherDisplay:10.37,2013-02-12 12:56:00,
2013-02-12 08:01:00,44.5,28.4,29.37,NW,322,2.3,0.0,53,0.00,CLR,,0.00,WeatherDisplay:10.37,2013-02-12 13:01:00,
2013-02-12 08:06:00,44.5,28.4,29.37,NW,322,0.0,0.0,53,0.00,CLR,,0.00,WeatherDisplay:10.37,2013-02-12 13:06:00,
2013-02-12 08:11:00,44.5,28.0,29.38,WSW,254,3.5,3.5,52,0.00,CLR,,0.00,WeatherDisplay:10.37,2013-02-12 13:11:00,
2013-02-12 08:16:00,44.6,28.5,29.38,SW,236,0.0,0.0,53,0.00,CLR,,0.00,WeatherDisplay:10.37,2013-02-12 13:16:00,
2013-02-12 08:21:00,44.9,28.8,29.38,West,278,2.3,2.3,53,0.00,CLR,,0.00,WeatherDisplay:10.37,2013-02-12 13:21:00,
2013-02-12 08:26:00,45.4,28.3,29.39,WSW,254,6.9,6.9,51,0.00,CLR,,0.00,WeatherDisplay:10.37,2013-02-12 13:26:00,
2013-02-12 08:31:00,45.8,27.7,29.39,SW,234,4.6,4.6,49,0.00,CLR,,0.00,WeatherDisplay:10.37,2013-02-12 13:31:00,
2013-02-12 08:36:00,46.4,28.3,29.39,West,277,3.5,3.5,49,0.00,CLR,,0.00,WeatherDisplay:10.37,2013-02-12 13:36:00,
2013-02-12 08:41:00,46.7,28.5,29.38,WNW,288,7.0,7.0,49,0.00,CLR,,0.00,WeatherDisplay:10.37,2013-02-12 13:41:00,
2013-02-12 08:46:00,47.1,27.9,29.38,West,267,4.6,4.6,47,0.00,CLR,,0.00,WeatherDisplay:10.37,2013-02-12 13:46:00,
2013-02-12 08:51:00,47.6,28.3,29.38,West,272,5.8,0.0,47,0.00,CLR,,0.00,WeatherDisplay:10.37,2013-02-12 13:51:00,
2013-02-12 08:56:00,47.9,28.6,29.39,SW,223,3.5,3.5,47,0.00,CLR,,0.00,WeatherDisplay:10.37,2013-02-12 13:56:00,
2013-02-12 09:01:00,48.0,28.7,29.39,NW,313,5.8,5.8,47,0.00,CLR,,0.00,WeatherDisplay:10.37,2013-02-12 14:01:00,
2013-02-12 09:06:00,48.2,28.9,29.39,SW,233,2.3,2.3,47,0.00,CLR,,0.00,WeatherDisplay:10.37,2013-02-12 14:06:00,
2013-02-12 09:11:00,48.6,28.2,29.39,NW,313,4.6,4.6,45,0.00,CLR,,0.00,WeatherDisplay:10.37,2013-02-12 14:11:00,
2013-02-12 09:16:00,48.8,27.8,29.39,North,359,0.0,0.1,44,0.00,CLR,,0.00,WeatherDisplay:10.37,2013-02-12 14:16:00,
2013-02-12 09:21:00,49.1,27.5,29.39,North,11,2.3,2.3,43,0.00,CLR,,0.00,WeatherDisplay:10.37,2013-02-12 14:21:00,
2013-02-12 09:26:00,49.2,28.2,29.39,North,0,2.3,2.3,44,0.00,CLR,,0.00,WeatherDisplay:10.37,2013-02-12 14:26:00,
2013-02-12 09:31:00,49.5,26.7,29.39,NW,315,6.9,6.9,41,0.00,CLR,,0.00,WeatherDisplay:10.37,2013-02-12 14:31:00,
2013-02-12 09:36:00,49.8,27.0,29.39,NNW,344,5.8,5.8,41,0.00,CLR,,0.00,WeatherDisplay:10.37,2013-02-12 14:36:00,
2013-02-12 09:41:00,50.1,26.7,29.40,West,277,6.9,6.9,40,0.00,CLR,,0.00,WeatherDisplay:10.37,2013-02-12 14:41:00,
2013-02-12 09:46:00,50.5,27.0,29.40,WNW,282,2.3,2.3,40,0.00,CLR,,0.00,WeatherDisplay:10.37,2013-02-12 14:46:00,
2013-02-12 09:51:00,50.5,27.0,29.40,WSW,248,6.9,6.9,40,0.00,CLR,,0.00,WeatherDisplay:10.37,2013-02-12 14:51:00,
2013-02-12 09:56:00,50.5,25.8,29.41,North,0,8.1,8.1,38,0.00,CLR,,0.00,WeatherDisplay:10.37,2013-02-12 14:56:00,
2013-02-12 10:01:00,50.7,26.0,29.41,North,3,4.6,4.6,38,0.00,CLR,,0.00,WeatherDisplay:10.37,2013-02-12 15:01:00,
2013-02-12 10:06:00,51.0,26.3,29.41,West,271,5.8,5.8,38,0.00,CLR,,0.00,WeatherDisplay:10.37,2013-02-12 15:06:00,
2013-02-12 10:11:00,51.1,26.3,29.41,West,263,10.4,10.4,38,0.00,CLR,,0.00,WeatherDisplay:10.37,2013-02-12 15:11:00,
2013-02-12 10:16:00,51.3,25.9,29.41,West,265,4.6,4.6,37,0.00,CLR,,0.00,WeatherDisplay:10.37,2013-02-12 15:16:00,
2013-02-12 10:21:00,51.6,28.0,29.41,West,265,6.0,6.0,40,0.00,CLR,,0.00,WeatherDisplay:10.37,2013-02-12 15:21:00,
2013-02-12 10:26:00,51.7,26.2,29.41,NNW,328,11.5,11.5,37,0.00,CLR,,0.00,WeatherDisplay:10.37,2013-02-12 15:26:00,
2013-02-12 10:31:00,51.9,27.1,29.41,NNW,339,5.8,5.8,38,0.00,CLR,,0.00,WeatherDisplay:10.37,2013-02-12 15:31:00,
2013-02-12 10:36:00,52.3,26.8,29.41,WSW,237,5.0,5.0,37,0.00,CLR,,0.00,WeatherDisplay:10.37,2013-02-12 15:36:00,
2013-02-12 10:41:00,52.3,25.4,29.41,NW,326,10.4,10.4,35,0.00,CLR,,0.00,WeatherDisplay:10.37,2013-02-12 15:41:00,
2013-02-12 10:46:00,52.5,24.9,29.41,NW,319,6.9,6.9,34,0.00,CLR,,0.00,WeatherDisplay:10.37,2013-02-12 15:46:00,
2013-02-12 10:51:00,52.6,25.7,29.41,West,281,3.5,3.5,35,0.00,CLR,,0.00,WeatherDisplay:10.37,2013-02-12 15:51:00,
2013-02-12 10:56:00,53.2,26.9,29.41,SW,220,3.5,3.5,36,0.00,CLR,,0.00,WeatherDisplay:10.37,2013-02-12 15:56:00,
2013-02-12 11:01:00,53.6,28.6,29.41,WSW,256,4.6,4.6,38,0.00,CLR,,0.00,WeatherDisplay:10.37,2013-02-12 16:01:00,
2013-02-12 11:06:00,53.5,26.5,29.41,NNW,347,8.1,8.1,35,0.00,CLR,,0.00,WeatherDisplay:10.37,2013-02-12 16:06:00,
2013-02-12 11:11:00,53.3,24.2,29.41,North,0,8.1,8.1,32,0.00,CLR,,0.00,WeatherDisplay:10.37,2013-02-12 16:11:00,
2013-02-12 11:16:00,53.5,25.8,29.41,NNE,14,8.0,8.0,34,0.00,CLR,,0.00,WeatherDisplay:10.37,2013-02-12 16:16:00,
2013-02-12 11:21:00,54.2,25.7,29.41,SW,229,5.8,5.8,33,0.00,CLR,,0.00,WeatherDisplay:10.37,2013-02-12 16:21:00,
2013-02-12 11:26:00,54.1,24.9,29.41,WNW,285,5.8,5.8,32,0.00,CLR,,0.00,WeatherDisplay:10.37,2013-02-12 16:26:00,
2013-02-12 11:31:00,54.2,25.7,29.41,North,8,6.9,6.9,33,0.00,CLR,,0.00,WeatherDisplay:10.37,2013-02-12 16:31:00,
2013-02-12 11:36:00,54.5,24.4,29.41,North,356,9.2,9.2,31,0.00,CLR,,0.00,WeatherDisplay:10.37,2013-02-12 16:36:00,
2013-02-12 11:41:00,54.7,24.6,29.41,SW,224,10.4,10.4,31,0.00,CLR,,0.00,WeatherDisplay:10.37,2013-02-12 16:41:00,
2013-02-12 11:46:00,54.8,23.1,29.41,NNE,32,9.2,9.2,29,0.00,CLR,,0.00,WeatherDisplay:10.37,2013-02-12 16:46:00,
2013-02-12 11:51:00,55.0,24.9,29.41,West,271,11.5,11.5,31,0.00,CLR,,0.00,WeatherDisplay:10.37,2013-02-12 16:51:00,
2013-02-12 11:56:00,54.8,24.7,29.39,WSW,239,11.5,11.5,31,0.00,CLR,,0.00,WeatherDisplay:10.37,2013-02-12 16:56:00,
2013-02-12 12:01:00,54.8,25.5,29.39,WNW,294,5.8,5.8,32,0.00,CLR,,0.00,WeatherDisplay:10.37,2013-02-12 17:01:00,
2013-02-12 12:06:00,55.3,24.4,29.39,North,359,10.4,10.4,30,0.00,CLR,,0.00,WeatherDisplay:10.37,2013-02-12 17:06:00,
2013-02-12 12:11:00,55.3,25.1,29.39,WNW,287,11.5,11.5,31,0.00,CLR,,0.00,WeatherDisplay:10.37,2013-02-12 17:11:00,
2013-02-12 12:16:00,55.3,25.1,29.39,WSW,246,3.5,3.5,31,0.00,CLR,,0.00,WeatherDisplay:10.37,2013-02-12 17:16:00,
2013-02-12 12:21:00,55.6,23.8,29.39,WNW,295,9.0,9.0,29,0.00,CLR,,0.00,WeatherDisplay:10.37,2013-02-12 17:21:00,
2013-02-12 12:26:00,56.0,24.2,29.38,NW,315,13.8,13.8,29,0.00,CLR,,0.00,WeatherDisplay:10.37,2013-02-12 17:26:00,
2013-02-12 12:31:00,56.3,24.4,29.38,West,272,5.8,5.8,29,0.00,CLR,,0.00,WeatherDisplay:10.37,2013-02-12 17:31:00,
2013-02-12 12:36:00,56.5,23.7,29.38,NW,304,6.9,6.9,28,0.00,CLR,,0.00,WeatherDisplay:10.37,2013-02-12 17:36:00,
2013-02-12 12:41:00,56.5,23.7,29.36,North,0,6.9,6.9,28,0.00,CLR,,0.00,WeatherDisplay:10.37,2013-02-12 17:41:00,
2013-02-12 12:46:00,56.5,23.7,29.36,North,0,3.5,3.5,28,0.00,CLR,,0.00,WeatherDisplay:10.37,2013-02-12 17:46:00,
2013-02-12 12:51:00,56.7,23.9,29.36,WSW,240,7.0,7.0,28,0.00,CLR,,0.00,WeatherDisplay:10.37,2013-02-12 17:51:00,
2013-02-12 12:56:00,56.7,23.9,29.33,NNW,347,5.8,5.8,28,0.00,CLR,,0.00,WeatherDisplay:10.37,2013-02-12 17:56:00,
2013-02-12 13:01:00,57.0,24.2,29.33,West,272,4.6,4.6,28,0.00,CLR,,0.00,WeatherDisplay:10.37,2013-02-12 18:01:00,
2013-02-12 13:06:00,57.2,26.8,29.33,North,356,4.6,4.6,31,0.00,CLR,,0.00,WeatherDisplay:10.37,2013-02-12 18:06:00,
2013-02-12 13:11:00,57.3,23.6,29.34,West,268,0.0,0.0,27,0.00,CLR,,0.00,WeatherDisplay:10.37,2013-02-12 18:11:00,
2013-02-12 13:16:00,57.8,24.9,29.34,North,6,3.5,3.5,28,0.00,CLR,,0.00,WeatherDisplay:10.37,2013-02-12 18:16:00,
2013-02-12 13:21:00,58.0,25.0,29.34,WSW,239,5.8,5.8,28,0.00,CLR,,0.00,WeatherDisplay:10.37,2013-02-12 18:21:00,
2013-02-12 13:26:00,58.0,25.9,29.35,NW,308,2.3,4.4,29,0.00,CLR,,0.00,WeatherDisplay:10.37,2013-02-12 18:26:00,
2013-02-12 13:31:00,57.8,24.0,29.35,West,267,6.9,6.9,27,0.00,CLR,,0.00,WeatherDisplay:10.37,2013-02-12 18:31:00,
2013-02-12 13:36:00,57.5,24.6,29.35,WNW,282,3.5,0.0,28,0.00,CLR,,0.00,WeatherDisplay:10.37,2013-02-12 18:36:00,
2013-02-12 13:41:00,57.5,24.6,29.34,SW,220,5.8,5.8,28,0.00,CLR,,0.00,WeatherDisplay:10.37,2013-02-12 18:41:00,
2013-02-12 13:46:00,58.1,25.1,29.34,WSW,253,5.8,5.8,28,0.00,CLR,,0.00,WeatherDisplay:10.37,2013-02-12 18:46:00,
2013-02-12 13:51:00,58.6,24.7,29.34,West,265,8.1,8.1,27,0.00,CLR,,0.00,WeatherDisplay:10.37,2013-02-12 18:51:00,
2013-02-12 13:56:00,58.1,24.3,29.32,SW,232,6.9,6.9,27,0.00,CLR,,0.00,WeatherDisplay:10.37,2013-02-12 18:56:00,
2013-02-12 14:01:00,58.1,25.1,29.32,NW,325,4.6,4.6,28,0.00,CLR,,0.00,WeatherDisplay:10.37,2013-02-12 19:01:00,
2013-02-12 14:06:00,58.1,24.3,29.32,SW,215,8.1,8.1,27,0.00,CLR,,0.00,WeatherDisplay:10.37,2013-02-12 19:06:00,
2013-02-12 14:11:00,58.3,24.4,29.31,SW,220,1.1,0.0,27,0.00,CLR,,0.00,WeatherDisplay:10.37,2013-02-12 19:11:00,
2013-02-12 14:16:00,58.6,24.7,29.31,SSW,206,6.9,6.9,27,0.00,CLR,,0.00,WeatherDisplay:10.37,2013-02-12 19:16:00,
2013-02-12 14:21:00,58.3,25.3,29.31,West,268,8.1,8.1,28,0.00,CLR,,0.00,WeatherDisplay:10.37,2013-02-12 19:21:00,
2013-02-12 14:26:00,58.3,25.3,29.31,West,270,5.8,5.8,28,0.00,CLR,,0.00,WeatherDisplay:10.37,2013-02-12 19:26:00,
2013-02-12 14:31:00,58.3,25.3,29.31,WSW,251,5.8,5.8,28,0.00,CLR,,0.00,WeatherDisplay:10.37,2013-02-12 19:31:00,
2013-02-12 14:37:00,58.3,25.3,29.31,SW,220,10.4,10.4,28,0.00,CLR,,0.00,WeatherDisplay:10.37,2013-02-12 19:37:00,
2013-02-12 14:42:00,58.1,26.0,29.32,NW,308,5.8,5.8,29,0.00,CLR,,0.00,WeatherDisplay:10.37,2013-02-12 19:42:00,
2013-02-12 14:47:00,58.3,25.3,29.32,WSW,258,4.6,4.6,28,0.00,CLR,,0.00,WeatherDisplay:10.37,2013-02-12 19:47:00,
2013-02-12 14:52:00,58.4,25.4,29.32,WNW,298,8.1,8.1,28,0.00,CLR,,0.00,WeatherDisplay:10.37,2013-02-12 19:52:00,
2013-02-12 14:57:00,58.3,25.3,29.32,SW,217,3.5,3.5,28,0.00,CLR,,0.00,WeatherDisplay:10.37,2013-02-12 19:57:00,
2013-02-12 15:02:00,58.1,25.1,29.32,West,264,6.9,6.9,28,0.00,CLR,,0.00,WeatherDisplay:10.37,2013-02-12 20:02:00,
2013-02-12 15:07:00,57.8,25.7,29.32,NW,312,4.6,4.6,29,0.00,CLR,,0.00,WeatherDisplay:10.37,2013-02-12 20:07:00,
2013-02-12 15:12:00,57.6,25.5,29.32,West,265,6.9,6.9,29,0.00,CLR,,0.00,WeatherDisplay:10.37,2013-02-12 20:12:00,
2013-02-12 15:17:00,57.5,26.3,29.32,WSW,241,8.1,8.1,30,0.00,CLR,,0.00,WeatherDisplay:10.37,2013-02-12 20:17:00,
2013-02-12 15:22:00,57.3,26.1,29.32,West,281,5.8,5.8,30,0.00,CLR,,0.00,WeatherDisplay:10.37,2013-02-12 20:22:00,
2013-02-12 15:27:00,57.2,25.2,29.32,WSW,258,3.5,3.5,29,0.00,CLR,,0.00,WeatherDisplay:10.37,2013-02-12 20:27:00,
2013-02-12 15:32:00,57.2,26.8,29.32,West,261,8.1,8.1,31,0.00,CLR,,0.00,WeatherDisplay:10.37,2013-02-12 20:32:00,
2013-02-12 15:37:00,57.2,26.8,29.32,WSW,248,1.1,1.1,31,0.00,CLR,,0.00,WeatherDisplay:10.37,2013-02-12 20:37:00,
2013-02-12 15:42:00,57.2,26.8,29.32,WSW,251,0.0,0.0,31,0.00,CLR,,0.00,WeatherDisplay:10.37,2013-02-12 20:42:00,
2013-02-12 15:47:00,57.0,26.6,29.32,West,261,3.0,3.0,31,0.00,CLR,,0.00,WeatherDisplay:10.37,2013-02-12 20:47:00,
2013-02-12 15:52:00,57.0,26.6,29.32,WSW,240,1.1,0.0,31,0.00,CLR,,0.00,WeatherDisplay:10.37,2013-02-12 20:52:00,
2013-02-12 15:57:00,57.0,26.6,29.32,SW,226,3.5,3.5,31,0.00,CLR,,0.00,WeatherDisplay:10.37,2013-02-12 20:57:00,
2013-02-12 16:02:00,57.0,28.1,29.32,NW,304,0.0,0.1,33,0.00,CLR,,0.00,WeatherDisplay:10.37,2013-02-12 21:02:00,
2013-02-12 16:07:00,56.9,27.3,29.32,WSW,243,3.5,3.5,32,0.00,CLR,,0.00,WeatherDisplay:10.37,2013-02-12 21:07:00,
2013-02-12 16:12:00,56.9,28.1,29.31,SW,215,2.3,0.0,33,0.00,CLR,,0.00,WeatherDisplay:10.37,2013-02-12 21:12:00,
2013-02-12 16:17:00,56.9,28.1,29.31,SW,215,1.1,1.1,33,0.00,CLR,,0.00,WeatherDisplay:10.37,2013-02-12 21:17:00,
2013-02-12 16:22:00,56.7,27.1,29.31,SW,236,1.1,1.2,32,0.00,CLR,,0.00,WeatherDisplay:10.37,2013-02-12 21:22:00,
2013-02-12 16:27:00,56.6,28.5,29.32,SW,236,2.3,2.3,34,0.00,CLR,,0.00,WeatherDisplay:10.37,2013-02-12 21:27:00,
2013-02-12 16:32:00,56.5,29.8,29.32,SW,234,0.0,0.0,36,0.00,CLR,,0.00,WeatherDisplay:10.37,2013-02-12 21:32:00,
2013-02-12 16:37:00,56.5,29.1,29.32,SW,224,2.3,0.0,35,0.00,CLR,,0.00,WeatherDisplay:10.37,2013-02-12 21:37:00,
2013-02-12 16:42:00,56.3,29.0,29.32,SW,224,2.3,2.3,35,0.00,CLR,,0.00,WeatherDisplay:10.37,2013-02-12 21:42:00,
2013-02-12 16:47:00,56.2,28.9,29.32,SW,233,0.0,0.0,35,0.00,CLR,,0.00,WeatherDisplay:10.37,2013-02-12 21:47:00,
2013-02-12 16:52:00,56.0,29.4,29.32,SW,233,0.0,0.0,36,0.00,CLR,,0.00,WeatherDisplay:10.37,2013-02-12 21:52:00,
2013-02-12 16:57:00,55.9,30.6,29.33,SW,233,0.0,0.0,38,0.00,CLR,,0.00,WeatherDisplay:10.37,2013-02-12 21:57:00,
2013-02-12 17:02:00,55.7,29.8,29.33,SW,233,0.0,0.0,37,0.00,CLR,,0.00,WeatherDisplay:10.37,2013-02-12 22:02:00,
2013-02-12 17:07:00,55.7,29.1,29.33,SW,233,2.3,2.3,36,0.00,CLR,,0.00,WeatherDisplay:10.37,2013-02-12 22:07:00,
2013-02-12 17:12:00,55.6,29.7,29.33,SW,234,0.0,0.0,37,0.00,CLR,,0.00,WeatherDisplay:10.37,2013-02-12 22:12:00,
2013-02-12 17:17:00,55.4,30.2,29.33,SW,226,0.0,0.0,38,0.00,CLR,,0.00,WeatherDisplay:10.37,2013-02-12 22:17:00,
2013-02-12 17:22:00,55.1,29.9,29.33,WSW,240,3.5,3.5,38,0.00,CLR,,0.00,WeatherDisplay:10.37,2013-02-12 22:22:00,
2013-02-12 17:27:00,55.0,29.8,29.33,WSW,246,0.0,0.0,38,0.00,CLR,,0.00,WeatherDisplay:10.37,2013-02-12 22:27:00,
2013-02-12 17:32:00,54.8,29.7,29.33,WSW,246,0.0,0.0,38,0.00,CLR,,0.00,WeatherDisplay:10.37,2013-02-12 22:32:00,
2013-02-12 17:37:00,54.5,31.3,29.33,WSW,246,0.0,0.0,41,0.00,CLR,,0.00,WeatherDisplay:10.37,2013-02-12 22:37:00,
2013-02-12 17:42:00,54.2,31.6,29.32,WSW,246,0.0,0.0,42,0.00,CLR,,0.00,WeatherDisplay:10.37,2013-02-12 22:42:00,
2013-02-12 17:47:00,53.9,30.7,29.32,WSW,246,0.0,0.0,41,0.00,CLR,,0.00,WeatherDisplay:10.37,2013-02-12 22:47:00,
2013-02-12 17:52:00,53.8,30.6,29.32,WSW,246,0.0,0.0,41,0.00,CLR,,0.00,WeatherDisplay:10.37,2013-02-12 22:52:00,
2013-02-12 17:57:00,53.6,30.4,29.32,WSW,246,0.0,0.0,41,0.00,CLR,,0.00,WeatherDisplay:10.37,2013-02-12 22:57:00,
2013-02-12 18:02:00,53.3,31.9,29.32,WSW,246,0.0,0.0,44,0.00,CLR,,0.00,WeatherDisplay:10.37,2013-02-12 23:02:00,
2013-02-12 18:07:00,53.2,31.3,29.32,WSW,246,0.0,0.0,43,0.00,CLR,,0.00,WeatherDisplay:10.37,2013-02-12 23:07:00,
2013-02-12 18:12:00,53.1,31.2,29.32,WSW,246,0.0,0.0,43,0.00,CLR,,0.00,WeatherDisplay:10.37,2013-02-12 23:12:00,
2013-02-12 18:17:00,52.9,31.6,29.32,WSW,246,0.0,0.0,44,0.00,CLR,,0.00,WeatherDisplay:10.37,2013-02-12 23:17:00,
2013-02-12 18:22:00,52.6,32.4,29.32,WSW,246,0.0,0.0,46,0.00,CLR,,0.00,WeatherDisplay:10.37,2013-02-12 23:22:00,
2013-02-12 18:27:00,52.3,32.1,29.31,WSW,246,0.0,0.0,46,0.00,CLR,,0.00,WeatherDisplay:10.37,2013-02-12 23:27:00,
2013-02-12 18:32:00,52.2,30.4,29.31,WSW,246,0.0,0.0,43,0.00,CLR,,0.00,WeatherDisplay:10.37,2013-02-12 23:32:00,
2013-02-12 18:37:00,52.2,33.6,29.31,WSW,246,0.0,0.0,49,0.00,CLR,,0.00,WeatherDisplay:10.37,2013-02-12 23:37:00,
2013-02-12 18:42:00,51.9,32.3,29.32,WSW,246,0.0,0.0,47,0.00,CLR,,0.00,WeatherDisplay:10.37,2013-02-12 23:42:00,
2013-02-12 18:47:00,51.7,32.6,29.32,WSW,246,0.0,0.0,48,0.00,CLR,,0.00,WeatherDisplay:10.37,2013-02-12 23:47:00,
2013-02-12 18:52:00,51.6,33.6,29.32,WSW,246,0.0,0.0,50,0.00,CLR,,0.00,WeatherDisplay:10.37,2013-02-12 23:52:00,
2013-02-12 18:57:00,51.3,33.8,29.31,WSW,246,0.0,0.0,51,0.00,CLR,,0.00,WeatherDisplay:10.37,2013-02-12 23:57:00,
2013-02-12 19:02:00,51.1,32.1,29.31,WSW,246,0.0,0.0,48,0.00,CLR,,0.00,WeatherDisplay:10.37,2013-02-13 00:02:00,
2013-02-12 19:07:00,51.1,31.0,29.31,WSW,246,0.0,0.0,46,0.00,CLR,,0.00,WeatherDisplay:10.37,2013-02-13 00:07:00,
2013-02-12 19:12:00,51.7,31.0,29.32,WSW,246,1.1,0.0,45,0.00,CLR,,0.00,WeatherDisplay:10.37,2013-02-13 00:12:00,
2013-02-12 19:17:00,52.0,32.4,29.32,WSW,246,0.0,0.0,47,0.00,CLR,,0.00,WeatherDisplay:10.37,2013-02-13 00:17:00,
2013-02-12 19:22:00,51.7,34.1,29.32,WSW,246,0.0,0.0,51,0.00,CLR,,0.00,WeatherDisplay:10.37,2013-02-13 00:22:00,
2013-02-12 19:27:00,51.3,32.3,29.30,WSW,246,0.0,0.0,48,0.00,CLR,,0.00,WeatherDisplay:10.37,2013-02-13 00:27:00,
2013-02-12 19:32:00,51.3,31.2,29.30,WSW,246,0.0,0.0,46,0.00,CLR,,0.00,WeatherDisplay:10.37,2013-02-13 00:32:00,
2013-02-12 19:37:00,51.1,35.0,29.30,WSW,246,0.0,0.0,54,0.00,CLR,,0.00,WeatherDisplay:10.37,2013-02-13 00:37:00,
2013-02-12 19:42:00,50.8,33.3,29.29,WSW,246,0.0,0.0,51,0.00,CLR,,0.00,WeatherDisplay:10.37,2013-02-13 00:42:00,
2013-02-12 19:47:00,50.5,34.9,29.29,WSW,246,0.0,0.0,55,0.00,CLR,,0.00,WeatherDisplay:10.37,2013-02-13 00:47:00,
2013-02-12 19:52:00,50.4,32.9,29.29,WSW,246,0.0,0.0,51,0.00,CLR,,0.00,WeatherDisplay:10.37,2013-02-13 00:52:00,
2013-02-12 19:57:00,50.4,34.4,29.29,WSW,246,0.0,0.0,54,0.00,CLR,,0.00,WeatherDisplay:10.37,2013-02-13 00:57:00,
2013-02-12 20:02:00,50.2,32.8,29.29,WSW,246,0.0,0.0,51,0.00,CLR,,0.00,WeatherDisplay:10.37,2013-02-13 01:02:00,
2013-02-12 20:07:00,50.5,31.5,29.29,WSW,246,0.0,0.0,48,0.00,CLR,,0.00,WeatherDisplay:10.37,2013-02-13 01:07:00,
2013-02-12 20:12:00,51.0,31.5,29.28,WSW,246,0.0,0.0,47,0.00,CLR,,0.00,WeatherDisplay:10.37,2013-02-13 01:12:00,
2013-02-12 20:17:00,51.0,31.5,29.28,WSW,246,0.0,0.0,47,0.00,CLR,,0.00,WeatherDisplay:10.37,2013-02-13 01:17:00,
2013-02-12 20:22:00,51.0,30.9,29.28,WSW,246,0.0,0.0,46,0.00,CLR,,0.00,WeatherDisplay:10.37,2013-02-13 01:22:00,
2013-02-12 20:27:00,51.1,31.6,29.26,WSW,246,0.0,0.0,47,0.00,CLR,,0.00,WeatherDisplay:10.37,2013-02-13 01:27:00,
2013-02-12 20:32:00,51.0,30.4,29.26,WSW,246,0.0,0.0,45,0.00,CLR,,0.00,WeatherDisplay:10.37,2013-02-13 01:32:00,
2013-02-12 20:37:00,51.0,29.8,29.26,WSW,246,0.0,0.0,44,0.00,CLR,,0.00,WeatherDisplay:10.37,2013-02-13 01:37:00,
2013-02-12 20:42:00,50.8,29.6,29.26,WSW,246,0.0,0.0,44,0.00,CLR,,0.00,WeatherDisplay:10.37,2013-02-13 01:42:00,
2013-02-12 20:47:00,51.0,31.5,29.26,WSW,246,0.0,0.0,47,0.00,CLR,,0.00,WeatherDisplay:10.37,2013-02-13 01:47:00,
2013-02-12 20:52:00,50.8,29.6,29.26,WSW,246,0.0,0.0,44,0.00,CLR,,0.00,WeatherDisplay:10.37,2013-02-13 01:52:00,
2013-02-12 20:57:00,50.8,28.5,29.28,WSW,246,0.0,0.0,42,0.00,CLR,,0.00,WeatherDisplay:10.37,2013-02-13 01:57:00,
2013-02-12 21:02:00,51.3,30.1,29.28,WSW,246,2.3,2.3,44,0.00,CLR,,0.00,WeatherDisplay:10.37,2013-02-13 02:02:00,
2013-02-12 21:07:00,51.7,28.7,29.28,WSW,246,2.3,0.0,41,0.00,CLR,,0.00,WeatherDisplay:10.37,2013-02-13 02:07:00,
2013-02-12 21:12:00,51.9,30.6,29.31,WSW,257,0.0,0.2,44,0.00,CLR,,0.00,WeatherDisplay:10.37,2013-02-13 02:12:00,
2013-02-12 21:17:00,51.7,30.5,29.31,WSW,257,2.3,2.3,44,0.00,CLR,,0.00,WeatherDisplay:10.37,2013-02-13 02:17:00,
2013-02-12 21:22:00,51.9,31.2,29.31,NW,326,0.0,0.0,45,0.00,CLR,,0.00,WeatherDisplay:10.37,2013-02-13 02:22:00,
2013-02-12 21:27:00,51.9,29.5,29.32,NW,326,0.0,0.0,42,0.00,CLR,,0.00,WeatherDisplay:10.37,2013-02-13 02:27:00,
2013-02-12 21:33:00,51.9,29.5,29.32,NW,326,1.1,0.0,42,0.00,CLR,,0.00,WeatherDisplay:10.37,2013-02-13 02:33:00,
2013-02-12 21:38:00,51.9,29.5,29.32,West,277,1.1,1.1,42,0.00,CLR,,0.00,WeatherDisplay:10.37,2013-02-13 02:38:00,
2013-02-12 21:43:00,51.9,29.5,29.32,West,277,0.0,0.0,42,0.00,CLR,,0.00,WeatherDisplay:10.37,2013-02-13 02:43:00,
2013-02-12 21:48:00,51.9,29.5,29.32,West,277,0.0,0.1,42,0.00,CLR,,0.00,WeatherDisplay:10.37,2013-02-13 02:48:00,
2013-02-12 21:53:00,52.0,29.6,29.32,West,277,0.0,0.0,42,0.00,CLR,,0.00,WeatherDisplay:10.37,2013-02-13 02:53:00,
2013-02-12 21:58:00,52.0,29.6,29.32,West,277,1.1,0.0,42,0.00,CLR,,0.00,WeatherDisplay:10.37,2013-02-13 02:58:00,
2013-02-12 22:03:00,51.9,29.5,29.32,WSW,257,0.0,0.0,42,0.00,CLR,,0.00,WeatherDisplay:10.37,2013-02-13 03:03:00,
2013-02-12 22:08:00,51.9,30.1,29.32,WSW,257,1.1,0.0,43,0.00,CLR,,0.00,WeatherDisplay:10.37,2013-02-13 03:08:00,
2013-02-12 22:13:00,51.7,29.9,29.32,WSW,256,1.1,1.1,43,0.00,CLR,,0.00,WeatherDisplay:10.37,2013-02-13 03:13:00,
2013-02-12 22:18:00,51.7,29.9,29.32,WSW,256,0.0,0.0,43,0.00,CLR,,0.00,WeatherDisplay:10.37,2013-02-13 03:18:00,
2013-02-12 22:23:00,51.7,29.3,29.32,SW,226,0.0,0.0,42,0.00,CLR,,0.00,WeatherDisplay:10.37,2013-02-13 03:23:00,
2013-02-12 22:28:00,51.7,29.9,29.32,SW,226,2.3,2.3,43,0.00,CLR,,0.00,WeatherDisplay:10.37,2013-02-13 03:28:00,
2013-02-12 22:33:00,51.6,29.8,29.32,SW,226,0.0,0.2,43,0.00,CLR,,0.00,WeatherDisplay:10.37,2013-02-13 03:33:00,
2013-02-12 22:38:00,51.6,29.8,29.32,SW,226,0.0,0.0,43,0.00,CLR,,0.00,WeatherDisplay:10.37,2013-02-13 03:38:00,
2013-02-12 22:43:00,51.6,29.8,29.32,SW,226,2.3,2.3,43,0.00,CLR,,0.00,WeatherDisplay:10.37,2013-02-13 03:43:00,
2013-02-12 22:48:00,51.7,29.3,29.32,WSW,256,3.5,3.5,42,0.00,CLR,,0.00,WeatherDisplay:10.37,2013-02-13 03:48:00,
2013-02-12 22:53:00,51.7,29.3,29.32,SW,226,2.3,2.3,42,0.00,CLR,,0.00,WeatherDisplay:10.37,2013-02-13 03:53:00,
2013-02-12 22:58:00,51.6,30.4,29.33,South,189,4.6,4.6,44,0.00,CLR,,0.00,WeatherDisplay:10.37,2013-02-13 03:58:00,
2013-02-12 23:03:00,51.4,30.2,29.33,SSW,205,4.6,4.6,44,0.00,CLR,,0.00,WeatherDisplay:10.37,2013-02-13 04:03:00,
2013-02-12 23:08:00,51.4,29.6,29.33,SSW,205,0.0,0.0,43,0.00,CLR,,0.00,WeatherDisplay:10.37,2013-02-13 04:08:00,
2013-02-12 23:13:00,51.4,30.2,29.30,SSW,205,0.0,0.0,44,0.00,CLR,,0.00,WeatherDisplay:10.37,2013-02-13 04:13:00,
2013-02-12 23:18:00,51.3,29.5,29.30,SSW,205,0.0,0.0,43,0.00,CLR,,0.00,WeatherDisplay:10.37,2013-02-13 04:18:00,
2013-02-12 23:23:00,51.3,29.0,29.30,SSW,205,0.0,0.0,42,0.00,CLR,,0.00,WeatherDisplay:10.37,2013-02-13 04:23:00,
2013-02-12 23:28:00,51.4,28.5,29.29,SSW,205,0.0,0.0,41,0.00,CLR,,0.00,WeatherDisplay:10.37,2013-02-13 04:28:00,
2013-02-12 23:33:00,51.6,28.6,29.29,SSW,205,0.0,0.0,41,0.00,CLR,,0.00,WeatherDisplay:10.37,2013-02-13 04:33:00,
2013-02-12 23:38:00,51.6,29.2,29.29,SSW,205,0.0,0.0,42,0.00,CLR,,0.00,WeatherDisplay:10.37,2013-02-13 04:38:00,
2013-02-12 23:43:00,51.4,30.7,29.29,SSW,205,0.0,0.0,45,0.00,CLR,,0.00,WeatherDisplay:10.37,2013-02-13 04:43:00,
2013-02-12 23:48:00,51.1,29.9,29.29,SSW,205,0.0,0.0,44,0.00,CLR,,0.00,WeatherDisplay:10.37,2013-02-13 04:48:00,
2013-02-12 23:53:00,51.1,28.2,29.29,SSW,205,0.0,0.0,41,0.00,CLR,,0.00,WeatherDisplay:10.37,2013-02-13 04:53:00,
2013-02-12 23:58:00,51.1,29.9,29.28,SSW,205,0.0,0.0,44,0.00,CLR,,0.00,WeatherDisplay:10.37,2013-02-13 04:58:00,